Time;durP1;ratioP1;P1;durP2;ratioP2;P2;SDS_P1;SDS_P2;PMS_P1;PMS_P2;Temp;Humidity;BMP_temperature;BMP_pressure;BME280_temperature;BME280_humidity;BME280_pressure;Samples;Min_cycle;Max_cycle;Signal;HPM_P1;HPM_P2
2023/06/15 00:01:32;;;;;;;16.17;10.95;;;;;;;21.09;72.00;100796.50;4976587;28;20132;-82
2023/06/15 00:04:01;;;;;;;15.63;11.18;;;;;;;21.10;72.60;100808.94;4973874;28;20095;-82
2023/06/15 00:06:32;;;;;;;15.77;12.57;;;;;;;21.72;73.01;100908.94;4948474;28;20137;-83
2023/06/15 00:09:00;;;;;;;21.33;13.63;;;;;;;21.59;72.65;100887.28;4972184;28;20052;-81
2023/06/15 00:11:27;;;;;;;20.30;15.10;;;;;;;21.69;72.71;100903.94;4979658;28;20080;-81
2023/06/15 00:13:54;;;;;;;24.73;15.65;;;;;;;21.79;72.88;100915.19;4985244;28;20462;-81
2023/06/15 00:16:21;;;;;;;29.15;16.23;;;;;;;21.69;72.35;100885.03;4995590;28;20154;-80
2023/06/15 00:18:48;;;;;;;23.60;15.65;;;;;;;21.63;72.20;100888.56;4973181;28;20448;-80
2023/06/15 00:21:15;;;;;;;20.10;14.60;;;;;;;21.84;72.39;100909.19;4990520;28;20442;-83
2023/06/15 00:23:47;;;;;;;21.75;13.60;;;;;;;21.87;71.58;100909.63;4984061;28;20068;-83
2023/06/15 00:26:17;;;;;;;17.48;12.27;;;;;;;21.61;71.79;100869.84;5000307;28;20080;-82
2023/06/15 00:28:50;;;;;;;16.10;12.18;;;;;;;21.82;71.76;100916.66;4971693;28;20068;-83
2023/06/15 00:31:19;;;;;;;19.77;12.15;;;;;;;21.77;71.76;100911.84;4973866;28;20385;-81
2023/06/15 00:33:49;;;;;;;16.35;10.10;;;;;;;21.50;71.85;100871.22;4971996;28;20447;-79
2023/06/15 00:36:17;;;;;;;17.88;12.07;;;;;;;21.73;71.81;100914.16;4992271;28;20149;-82
2023/06/15 00:38:44;;;;;;;18.55;11.02;;;;;;;21.40;72.01;100845.66;4969904;28;20133;-82
2023/06/15 00:41:11;;;;;;;13.85;11.02;;;;;;;21.65;71.87;100883.75;4979339;28;20081;-82
2023/06/15 00:43:38;;;;;;;21.38;10.93;;;;;;;21.77;71.67;100912.72;4972429;28;20053;-83
2023/06/15 00:46:05;;;;;;;18.27;10.63;;;;;;;21.41;72.12;100868.91;4989692;28;20573;-82
2023/06/15 00:48:34;;;;;;;14.73;10.95;;;;;;;21.13;72.54;100816.63;4980833;28;20455;-82
2023/06/15 00:51:09;;;;;;;14.55;11.20;;;;;;;21.06;71.85;100810.38;4996650;28;20046;-83
2023/06/15 00:53:37;;;;;;;16.15;11.15;;;;;;;21.65;72.04;100903.53;4996573;28;20276;-80
2023/06/15 00:56:05;;;;;;;21.80;11.40;;;;;;;21.65;72.42;100914.34;4978228;28;20111;-82
2023/06/15 00:58:35;;;;;;;17.75;12.63;;;;;;;21.60;72.64;100913.25;4993758;28;20136;-82
2023/06/15 01:01:05;;;;;;;17.33;13.02;;;;;;;21.40;72.31;100889.69;4972335;28;20106;-82
2023/06/15 01:03:40;;;;;;;20.00;13.18;;;;;;;21.44;72.52;100912.56;4987292;28;20049;-83
2023/06/15 01:06:13;;;;;;;25.63;14.48;;;;;;;21.30;72.83;100891.91;4981399;28;20054;-82
2023/06/15 01:08:47;;;;;;;19.98;12.68;;;;;;;21.27;72.93;100900.41;4974109;28;20148;-82
2023/06/15 01:11:15;;;;;;;15.57;12.35;;;;;;;21.23;73.26;100896.44;4974535;28;20083;-82
2023/06/15 01:13:44;;;;;;;22.02;14.15;;;;;;;21.38;73.29;100910.63;4992290;28;20077;-81
2023/06/15 01:16:21;;;;;;;19.00;12.30;;;;;;;21.50;72.95;100933.34;5001215;28;20049;-81
2023/06/15 01:18:56;;;;;;;18.10;12.20;;;;;;;21.46;73.23;100926.72;4978388;28;20049;-83
2023/06/15 01:21:32;;;;;;;17.38;12.20;;;;;;;21.38;72.93;100916.03;4977941;28;20068;-80
2023/06/15 01:24:18;;;;;;;18.75;13.32;;;;;;;21.10;73.15;100862.94;4984782;28;20095;-81
2023/06/15 01:26:52;;;;;;;27.15;13.68;;;;;;;20.83;73.17;100836.84;4995258;28;20068;-81
2023/06/15 01:29:21;;;;;;;17.52;13.25;;;;;;;21.26;73.95;100909.53;4973743;28;20307;-82
2023/06/15 01:31:52;;;;;;;19.25;12.75;;;;;;;21.18;74.62;100888.09;4992693;28;20505;-81
2023/06/15 01:34:19;;;;;;;12.52;10.88;;;;;;;21.37;74.28;100910.84;4979072;28;20049;-81
2023/06/15 01:36:45;;;;;;;18.90;13.20;;;;;;;20.65;73.72;100789.59;4978693;28;20521;-82
2023/06/15 01:39:14;;;;;;;20.05;13.05;;;;;;;21.37;73.67;100910.84;4997276;28;20130;-81
2023/06/15 01:41:40;;;;;;;22.10;13.40;;;;;;;21.32;73.56;100897.94;4982726;28;20450;-82
2023/06/15 01:44:07;;;;;;;24.92;13.10;;;;;;;21.21;73.50;100885.00;4991640;28;20552;-81
2023/06/15 01:46:34;;;;;;;17.52;13.20;;;;;;;20.96;73.82;100850.38;4977483;28;20073;-83
2023/06/15 01:49:02;;;;;;;25.17;15.02;;;;;;;21.40;73.81;100916.69;4969353;28;20053;-81
2023/06/15 01:51:30;;;;;;;23.33;14.95;;;;;;;21.18;73.99;100864.63;4980390;28;20331;-82
2023/06/15 01:53:57;;;;;;;19.48;14.32;;;;;;;20.99;73.89;100828.38;5005298;28;20129;-80
2023/06/15 01:56:26;;;;;;;27.25;13.98;;;;;;;21.51;73.74;100918.84;4992367;28;20388;-79
2023/06/15 01:58:56;;;;;;;22.25;12.68;;;;;;;21.29;73.68;100876.75;4958166;28;20042;-81
2023/06/15 02:01:26;;;;;;;19.13;14.15;;;;;;;21.34;73.10;100882.38;4975822;28;20669;-83
2023/06/15 02:03:54;;;;;;;24.02;14.93;;;;;;;21.50;73.16;100910.91;4993219;28;20117;-82
2023/06/15 02:06:21;;;;;;;22.13;15.05;;;;;;;21.05;73.47;100854.59;4963672;28;20306;-82
2023/06/15 02:08:48;;;;;;;17.38;14.30;;;;;;;21.41;73.08;100912.97;4967572;28;20522;-81
2023/06/15 02:11:18;;;;;;;25.38;14.90;;;;;;;20.83;73.60;100823.34;4959823;28;20153;-81
2023/06/15 02:13:45;;;;;;;23.13;13.77;;;;;;;21.31;73.58;100917.84;4946255;28;20078;-82
2023/06/15 02:16:12;;;;;;;21.63;14.15;;;;;;;21.15;73.60;100891.19;4952064;28;20046;-83
2023/06/15 02:18:45;;;;;;;26.27;14.15;;;;;;;21.26;73.29;100909.53;4942604;28;20112;-83
2023/06/15 02:21:13;;;;;;;18.58;13.70;;;;;;;21.24;73.42;100916.97;4943794;28;20311;-81
2023/06/15 02:23:40;;;;;;;22.15;13.82;;;;;;;21.14;73.54;100911.94;4949732;28;20062;-82
2023/06/15 02:26:13;;;;;;;24.08;13.48;;;;;;;21.01;73.84;100899.19;4962512;28;20054;-84
2023/06/15 02:28:44;;;;;;;16.75;13.65;;;;;;;21.13;73.59;100912.97;4932769;28;20476;-81
2023/06/15 02:31:10;;;;;;;16.83;13.00;;;;;;;21.09;73.91;100909.00;4928995;28;20110;-82
2023/06/15 02:33:38;;;;;;;22.80;13.02;;;;;;;20.98;73.73;100886.09;4932601;28;20062;-82
2023/06/15 02:36:06;;;;;;;19.00;12.52;;;;;;;20.31;73.80;100770.66;4952638;28;20054;-84
2023/06/15 02:38:37;;;;;;;19.73;12.32;;;;;;;21.02;73.11;100876.59;4929350;28;20113;-84
2023/06/15 02:41:07;;;;;;;17.40;12.40;;;;;;;21.07;73.17;100890.31;4951600;28;20342;-83
2023/06/15 02:43:33;;;;;;;18.58;13.50;;;;;;;20.88;73.14;100883.75;4930275;28;20046;-82
2023/06/15 02:46:05;;;;;;;15.95;12.27;;;;;;;20.67;73.62;100852.28;4939344;28;20121;-82
2023/06/15 02:48:35;;;;;;;18.85;12.60;;;;;;;21.03;73.61;100899.84;4933414;28;20288;-81
2023/06/15 02:51:06;;;;;;;21.90;13.13;;;;;;;20.68;73.27;100858.50;4956530;28;20038;-83
2023/06/15 02:53:37;;;;;;;21.70;12.20;;;;;;;20.93;73.74;100907.47;4967632;28;20062;-82
2023/06/15 02:56:04;;;;;;;17.05;12.32;;;;;;;20.39;73.57;100819.91;4954571;28;20511;-82
2023/06/15 02:58:34;;;;;;;17.52;12.10;;;;;;;20.94;73.70;100901.03;4937175;28;20081;-82
2023/06/15 03:01:07;;;;;;;16.73;12.48;;;;;;;20.88;73.69;100897.25;4930320;28;20053;-81
2023/06/15 03:03:40;;;;;;;21.05;12.95;;;;;;;20.74;74.35;100897.34;4939602;28;20238;-83
2023/06/15 03:06:18;;;;;;;21.88;14.85;;;;;;;20.83;74.55;100901.59;4954224;28;20055;-84
2023/06/15 03:08:45;;;;;;;18.08;13.55;;;;;;;21.00;74.01;100921.84;4929994;28;20368;-81
2023/06/15 03:11:12;;;;;;;18.27;14.02;;;;;;;21.06;73.78;100934.53;4919294;28;20390;-82
2023/06/15 03:13:39;;;;;;;17.20;13.60;;;;;;;21.01;73.68;100928.88;4950398;28;20046;-82
2023/06/15 03:16:07;;;;;;;21.95;13.63;;;;;;;20.89;73.43;100922.38;4944897;28;20407;-82
2023/06/15 03:18:40;;;;;;;16.67;12.85;;;;;;;20.96;73.60;100938.63;4926203;28;20144;-83
2023/06/15 03:21:07;;;;;;;22.80;14.48;;;;;;;20.81;73.78;100927.91;4925815;28;20328;-82
2023/06/15 03:23:34;;;;;;;16.05;12.80;;;;;;;20.70;74.09;100927.44;4932791;28;20410;-81
2023/06/15 03:26:03;;;;;;;17.77;14.23;;;;;;;20.77;74.65;100943.66;4931472;28;20250;-83
2023/06/15 03:28:30;;;;;;;18.02;14.27;;;;;;;20.76;74.56;100933.06;4962765;28;20317;-84
2023/06/15 03:31:05;;;;;;;;;;;;;;;20.68;74.84;100936.72;4947292;28;20555;-82
2023/06/15 03:33:36;;;;;;;27.77;15.10;;;;;;;20.69;74.78;100941.09;4974782;28;20009;-82
2023/06/15 03:36:10;;;;;;;26.42;14.52;;;;;;;20.54;74.58;100906.09;4953845;28;20341;-82
2023/06/15 03:38:45;;;;;;;24.40;15.05;;;;;;;20.45;74.87;100894.59;4954199;28;20134;-81
2023/06/15 03:41:12;;;;;;;25.45;14.45;;;;;;;20.64;74.63;100938.16;4977539;28;20053;-82
2023/06/15 03:43:41;;;;;;;21.00;14.43;;;;;;;20.50;74.57;100916.41;4957390;28;20073;-83
2023/06/15 03:46:08;;;;;;;22.55;14.07;;;;;;;20.46;75.08;100925.09;4968022;28;20108;-84
2023/06/15 03:48:35;;;;;;;20.05;14.63;;;;;;;20.46;74.94;100914.31;4959056;28;20597;-82
2023/06/15 03:51:02;;;;;;;20.23;14.88;;;;;;;20.55;75.02;100945.53;4972191;28;20432;-81
2023/06/15 03:53:29;;;;;;;26.25;15.43;;;;;;;20.07;75.08;100872.47;4992025;28;20506;-81
2023/06/15 03:55:56;;;;;;;18.20;14.80;;;;;;;20.33;75.44;100925.81;4976370;28;20134;-81
2023/06/15 03:58:24;;;;;;;22.27;15.02;;;;;;;20.27;74.67;100910.41;4980803;28;20264;-81
2023/06/15 04:00:56;;;;;;;;;;;;;;;20.45;75.28;100958.50;4968646;28;20053;-81
2023/06/15 04:03:27;;;;;;;19.70;14.73;;;;;;;20.38;75.04;100944.09;4956473;28;20121;-81
2023/06/15 04:06:03;;;;;;;23.95;16.27;;;;;;;20.34;75.06;100953.59;4954266;28;20056;-82
2023/06/15 04:08:44;;;;;;;21.98;15.55;;;;;;;20.17;75.31;100929.59;4959378;28;20046;-81
2023/06/15 04:11:11;;;;;;;22.73;15.15;;;;;;;20.15;75.25;100928.97;4971909;28;20129;-82
2023/06/15 04:13:41;;;;;;;21.85;14.05;;;;;;;20.33;75.70;100951.94;4976591;28;20076;-80
2023/06/15 04:16:10;;;;;;;20.00;15.90;;;;;;;20.54;74.73;100970.81;4968986;28;20145;-82
2023/06/15 04:18:37;;;;;;;24.92;16.50;;;;;;;19.80;74.41;100855.19;4983361;28;20462;-81
2023/06/15 04:21:05;;;;;;;26.80;16.73;;;;;;;20.51;74.94;100976.59;4990012;28;20058;-81
2023/06/15 04:23:32;;;;;;;26.00;15.75;;;;;;;19.99;74.64;100886.06;4974855;28;20123;-81
2023/06/15 04:26:00;;;;;;;26.58;15.52;;;;;;;20.54;74.53;100970.81;4949513;28;20568;-81
2023/06/15 04:28:33;;;;;;;20.25;14.88;;;;;;;20.42;74.18;100950.78;4959266;28;20054;-83
2023/06/15 04:31:09;;;;;;;22.40;14.35;;;;;;;20.62;74.10;100977.97;4974191;28;20042;-81
2023/06/15 04:33:43;;;;;;;26.00;16.13;;;;;;;20.19;74.38;100914.06;4971169;28;20093;-84
2023/06/15 04:36:18;;;;;;;21.27;17.48;;;;;;;19.90;74.59;100881.81;4964905;28;20050;-83
2023/06/15 04:38:49;;;;;;;27.95;17.10;;;;;;;20.52;74.27;100972.88;4964538;28;20049;-82
2023/06/15 04:41:22;;;;;;;23.92;17.55;;;;;;;20.53;75.42;100990.72;4975402;28;20398;-82
2023/06/15 04:43:54;;;;;;;25.48;17.77;;;;;;;20.19;74.61;100935.59;4981472;28;20050;-81
2023/06/15 04:46:21;;;;;;;28.50;18.30;;;;;;;20.25;75.29;100929.47;4964144;28;20267;-82
2023/06/15 04:48:51;;;;;;;32.45;19.88;;;;;;;20.59;74.85;100989.16;4955469;28;20413;-84
2023/06/15 04:51:23;;;;;;;25.77;18.98;;;;;;;20.49;75.26;100975.97;4976688;28;20221;-83
2023/06/15 04:53:50;;;;;;;31.98;20.52;;;;;;;20.54;75.38;100991.56;4991178;28;20114;-83
2023/06/15 04:56:16;;;;;;;27.73;20.08;;;;;;;20.52;74.96;100966.66;4974435;28;20038;-83
2023/06/15 04:58:43;;;;;;;25.73;19.13;;;;;;;20.06;74.77;100897.75;4977902;28;20759;-84
2023/06/15 05:01:10;;;;;;;31.77;19.05;;;;;;;19.55;74.96;100814.28;4967499;28;20103;-83
2023/06/15 05:03:40;;;;;;;30.27;19.20;;;;;;;20.57;75.13;100981.25;4982334;28;20057;-83
2023/06/15 05:06:07;;;;;;;28.25;18.90;;;;;;;20.27;74.93;100921.19;4972403;28;20050;-83
2023/06/15 05:08:35;;;;;;;31.00;19.98;;;;;;;20.67;74.78;100980.91;4975839;28;20374;-84
2023/06/15 05:11:02;;;;;;;41.40;20.20;;;;;;;20.37;74.22;100915.47;4982329;28;20145;-83
2023/06/15 05:13:29;;;;;;;27.67;19.23;;;;;;;20.76;73.51;100946.56;4988229;28;20050;-83
2023/06/15 05:15:58;;;;;;;31.48;21.35;;;;;;;20.60;73.82;100928.78;4983532;28;20064;-84
2023/06/15 05:18:25;;;;;;;30.40;19.30;;;;;;;21.02;73.56;100989.09;4989588;28;20073;-82
2023/06/15 05:20:52;;;;;;;31.40;21.08;;;;;;;20.49;73.53;100903.16;4987656;28;20049;-83
2023/06/15 05:23:21;;;;;;;27.30;20.00;;;;;;;21.03;73.60;100999.69;4987764;28;20532;-83
2023/06/15 05:29:40;;;;;;;30.20;19.98;;;;;;;21.16;72.92;101001.66;4939150;28;20599;-84
2023/06/15 05:32:07;;;;;;;28.38;18.38;;;;;;;20.71;72.31;100906.69;4956053;28;20045;-83
2023/06/15 05:34:35;;;;;;;30.52;18.10;;;;;;;21.30;72.32;100999.91;4983477;28;20052;-82
2023/06/15 05:37:02;;;;;;;28.13;19.10;;;;;;;21.15;72.29;100980.28;4996647;28;20451;-83
2023/06/15 05:39:44;;;;;;;25.27;17.15;;;;;;;20.85;72.44;100927.34;4922099;28;20054;-80
2023/06/15 05:42:11;;;;;;;27.00;18.20;;;;;;;21.45;72.83;100999.81;4952873;28;20398;-82
2023/06/15 05:44:37;;;;;;;21.23;17.40;;;;;;;21.60;71.10;101010.50;4966097;28;20145;-84
2023/06/15 05:47:05;;;;;;;25.55;17.33;;;;;;;21.42;71.18;100982.16;4975046;28;20053;-83
2023/06/15 05:49:35;;;;;;;22.35;17.33;;;;;;;21.70;71.12;101005.56;4992238;28;20462;-82
2023/06/15 05:52:06;;;;;;;24.02;16.27;;;;;;;21.86;69.59;101001.69;4964396;28;20407;-84
2023/06/15 05:54:34;;;;;;;27.35;18.80;;;;;;;21.55;68.94;100944.41;4982786;28;20053;-81
2023/06/15 05:57:01;;;;;;;26.35;18.52;;;;;;;21.83;69.67;100989.44;4980242;28;20046;-84
2023/06/15 05:59:30;;;;;;;24.17;17.60;;;;;;;21.81;70.07;100986.09;4986995;28;20050;-84
2023/06/15 06:02:00;;;;;;;18.80;13.73;;;;;;;21.58;69.04;100943.19;4979648;28;20046;-84
2023/06/15 06:04:30;;;;;;;19.40;14.60;;;;;;;21.76;67.64;100965.06;4996249;28;20632;-83
2023/06/15 06:06:59;;;;;;;22.25;16.25;;;;;;;21.49;67.68;100920.91;4992339;28;20050;-84
2023/06/15 06:09:28;;;;;;;21.05;14.95;;;;;;;22.00;67.45;100994.50;4962095;28;20064;-84
2023/06/15 06:12:00;;;;;;;18.05;14.73;;;;;;;22.06;67.17;101002.59;4980139;28;20112;-82
2023/06/15 06:14:32;;;;;;;20.50;14.05;;;;;;;22.16;66.53;101010.34;4954106;28;20046;-82
2023/06/15 06:16:59;;;;;;;25.17;13.52;;;;;;;22.03;66.59;100996.78;5001588;28;20133;-83
2023/06/15 06:19:26;;;;;;;16.65;12.30;;;;;;;21.66;66.30;100921.38;4964462;28;20052;-82
2023/06/15 06:21:52;;;;;;;13.32;10.95;;;;;;;21.85;65.68;100949.53;4977439;28;20072;-84
2023/06/15 06:24:23;;;;;;;11.98;10.60;;;;;;;21.15;64.23;100839.91;4979201;28;20682;-84
2023/06/15 06:26:51;;;;;;;15.68;11.52;;;;;;;21.62;63.97;100913.88;4984451;28;20069;-83
2023/06/15 06:29:19;;;;;;;17.55;12.75;;;;;;;21.91;63.76;100950.56;4965398;28;20153;-83
2023/06/15 06:31:47;;;;;;;23.95;11.60;;;;;;;22.29;64.50;101033.94;4979234;28;20061;-81
2023/06/15 06:34:15;;;;;;;16.23;10.63;;;;;;;22.29;64.10;101025.81;4980264;28;20096;-83
2023/06/15 06:36:42;;;;;;;20.23;10.50;;;;;;;22.14;63.37;100988.94;4993028;28;20061;-84
2023/06/15 06:39:12;;;;;;;17.40;11.65;;;;;;;22.30;62.69;100998.56;4972109;28;20281;-84
2023/06/15 06:41:38;;;;;;;14.68;10.18;;;;;;;22.48;62.99;101026.91;4978427;28;20049;-84
2023/06/15 06:44:08;;;;;;;16.25;9.48;;;;;;;21.90;62.50;100920.03;4999449;28;20501;-83
2023/06/15 06:46:36;;;;;;;14.00;9.35;;;;;;;22.68;61.54;101026.94;4996456;28;20042;-81
2023/06/15 06:49:03;;;;;;;13.63;11.07;;;;;;;22.66;61.21;101002.78;4944866;28;20467;-83
2023/06/15 06:51:29;;;;;;;19.15;13.13;;;;;;;22.70;62.46;101008.63;4984898;28;20137;-83
2023/06/15 06:53:56;;;;;;;14.68;11.88;;;;;;;22.46;62.97;100985.72;4924199;28;20464;-82
2023/06/15 06:56:26;;;;;;;16.48;13.07;;;;;;;22.55;63.76;101006.94;4981113;28;20050;-83
2023/06/15 06:58:53;;;;;;;20.55;12.88;;;;;;;22.73;63.35;101013.63;4993179;28;20240;-82
2023/06/15 07:01:20;;;;;;;17.77;11.40;;;;;;;22.69;62.74;100988.84;4989266;28;20501;-83
2023/06/15 07:03:47;;;;;;;12.90;9.75;;;;;;;22.76;62.80;101014.03;4989779;28;20777;-83
2023/06/15 07:06:14;;;;;;;21.33;11.68;;;;;;;22.19;61.58;100920.72;4975675;28;20058;-83
2023/06/15 07:08:43;;;;;;;11.70;9.05;;;;;;;22.21;60.56;100924.09;4994883;28;20188;-83
2023/06/15 07:11:10;;;;;;;14.40;10.70;;;;;;;22.83;60.78;100989.69;4978077;28;20061;-83
2023/06/15 07:13:37;;;;;;;24.38;10.75;;;;;;;23.06;60.94;101013.69;4982165;28;20424;-82
2023/06/15 07:16:06;;;;;;;21.42;12.68;;;;;;;22.98;61.03;100984.91;4977165;28;20391;-83
2023/06/15 07:18:37;;;;;;;19.05;12.30;;;;;;;22.85;61.85;100978.66;4998363;28;20452;-83
2023/06/15 07:21:04;;;;;;;17.70;12.77;;;;;;;23.16;60.58;101008.69;4981736;28;20137;-82
2023/06/15 07:23:34;;;;;;;25.15;11.68;;;;;;;23.01;61.09;100978.25;4994822;28;20056;-82
2023/06/15 07:26:21;;;;;;;17.40;11.70;;;;;;;23.11;61.22;100999.50;4988862;28;20358;-84
2023/06/15 07:28:54;;;;;;;17.83;11.07;;;;;;;22.57;60.78;100912.88;4980258;28;20242;-82
2023/06/15 07:31:28;;;;;;;11.88;10.20;;;;;;;23.18;60.74;101000.31;4984565;28;20061;-82
2023/06/15 07:34:02;;;;;;;14.40;10.73;;;;;;;23.00;59.58;100955.78;4982156;28;20256;-80
2023/06/15 07:36:31;;;;;;;13.65;9.90;;;;;;;23.32;58.91;101011.97;4988205;28;20050;-81
2023/06/15 07:39:01;;;;;;;16.48;10.60;;;;;;;23.22;57.96;100974.50;4978599;28;20046;-82
2023/06/15 07:41:29;;;;;;;12.70;9.50;;;;;;;23.46;57.96;101002.78;4960822;28;20034;-82
2023/06/15 07:43:56;;;;;;;13.93;9.93;;;;;;;22.98;57.44;100903.69;5002476;28;20105;-82
2023/06/15 07:46:23;;;;;;;10.93;9.68;;;;;;;23.57;57.23;101004.84;4988062;28;20590;-82
2023/06/15 07:48:50;;;;;;;11.88;10.05;;;;;;;23.48;56.87;100973.59;4966898;28;20058;-81
2023/06/15 07:51:17;;;;;;;12.52;9.32;;;;;;;23.53;56.15;100973.78;4977051;28;20052;-81
2023/06/15 07:54:06;;;;;;;13.35;8.70;;;;;;;23.63;56.49;100976.88;4980908;28;20064;-82
2023/06/15 07:56:33;;;;;;;12.63;8.55;;;;;;;23.62;56.73;101005.03;4979662;28;20456;-83
2023/06/15 07:59:02;;;;;;;16.88;9.10;;;;;;;23.58;56.16;100998.38;4976421;28;20331;-81
2023/06/15 08:01:29;;;;;;;12.40;9.50;;;;;;;23.60;56.17;101006.31;4985238;28;20054;-81
2023/06/15 08:04:00;;;;;;;12.93;9.57;;;;;;;23.68;56.23;100996.03;4985098;28;20109;-82
2023/06/15 08:06:27;;;;;;;12.95;8.75;;;;;;;23.18;55.84;100889.28;4984462;28;20502;-82
2023/06/15 08:08:54;;;;;;;12.55;8.95;;;;;;;23.56;55.97;100951.69;4948456;28;20051;-81
2023/06/15 08:11:21;;;;;;;18.67;9.95;;;;;;;23.70;55.48;100982.28;4959031;28;20058;-80
2023/06/15 08:13:52;;;;;;;12.32;9.68;;;;;;;23.61;55.50;100949.16;4974810;28;20050;-81
2023/06/15 08:16:23;;;;;;;11.67;9.27;;;;;;;23.75;55.39;100965.41;4962303;28;20163;-83
2023/06/15 08:18:50;;;;;;;11.75;10.10;;;;;;;23.43;55.60;100917.34;4976984;28;20585;-81
2023/06/15 08:21:19;;;;;;;13.32;9.23;;;;;;;22.82;55.58;100817.53;4957246;28;20060;-82
2023/06/15 08:23:46;;;;;;;12.57;8.93;;;;;;;23.71;55.37;100942.47;4970674;28;20049;-83
2023/06/15 08:26:13;;;;;;;17.60;9.73;;;;;;;24.15;55.69;101000.47;4962957;28;20482;-83
2023/06/15 08:28:40;;;;;;;22.27;10.55;;;;;;;24.18;55.34;100994.63;4974104;28;20046;-83
2023/06/15 08:31:13;;;;;;;14.10;9.57;;;;;;;24.12;54.94;100976.50;4959515;28;20128;-82
2023/06/15 08:33:40;;;;;;;11.63;10.13;;;;;;;24.17;54.81;100990.25;4974775;28;20120;-82
2023/06/15 08:36:07;;;;;;;15.70;9.45;;;;;;;24.13;54.43;100992.56;4927012;28;20163;-81
2023/06/15 08:38:34;;;;;;;12.57;9.95;;;;;;;24.17;54.78;100998.38;4943179;28;20050;-82
2023/06/15 08:41:03;;;;;;;19.27;11.00;;;;;;;23.61;55.05;100896.84;4940308;28;20132;-83
2023/06/15 08:43:32;;;;;;;13.80;9.52;;;;;;;23.72;54.95;100903.50;4979539;28;20051;-82
2023/06/15 08:46:02;;;;;;;13.50;10.07;;;;;;;24.10;54.85;100952.31;4973290;28;20134;-83
2023/06/15 08:48:32;;;;;;;16.00;10.70;;;;;;;24.18;54.75;100964.81;4972809;28;20060;-83
2023/06/15 08:51:05;;;;;;;13.23;9.30;;;;;;;23.74;54.04;100885.13;4957791;28;20042;-83
2023/06/15 08:53:34;;;;;;;13.13;9.98;;;;;;;24.24;53.46;100961.22;4972983;28;20661;-84
2023/06/15 08:56:11;;;;;;;10.63;8.90;;;;;;;24.59;53.85;101010.50;4980096;28;20062;-83
2023/06/15 08:58:39;;;;;;;10.38;9.27;;;;;;;24.41;52.93;100959.63;4962964;28;20290;-84
2023/06/15 09:01:07;;;;;;;13.40;10.23;;;;;;;24.68;52.40;100973.03;4953766;28;20422;-83
2023/06/15 09:03:34;;;;;;;13.25;9.68;;;;;;;24.78;52.00;100988.84;4975198;28;20417;-82
2023/06/15 09:06:01;;;;;;;20.38;10.50;;;;;;;24.42;52.25;100909.75;4998532;28;20413;-82
2023/06/15 09:08:28;;;;;;;12.63;9.68;;;;;;;24.66;52.85;100964.28;5010457;28;20471;-82
2023/06/15 09:11:08;;;;;;;17.20;11.38;;;;;;;24.84;52.85;101004.25;4998333;28;20050;-82
2023/06/15 09:13:35;;;;;;;16.15;10.40;;;;;;;24.59;53.34;100979.78;4969264;28;20072;-81
2023/06/15 09:16:03;;;;;;;13.60;10.02;;;;;;;24.80;51.92;100987.56;4980724;28;20143;-81
2023/06/15 09:18:42;;;;;;;14.02;10.20;;;;;;;24.90;51.55;100976.19;4928669;28;21063;-83
2023/06/15 09:21:17;;;;;;;11.55;8.95;;;;;;;25.02;52.43;100985.28;4837328;28;20359;-82
2023/06/15 09:23:46;;;;;;;12.80;9.43;;;;;;;24.95;51.81;100947.34;4905573;28;20055;-82
2023/06/15 09:26:26;;;;;;;20.42;10.57;;;;;;;24.50;52.75;100866.09;4919832;29;20054;-82
2023/06/15 09:28:56;;;;;;;13.02;9.23;;;;;;;25.38;51.26;100981.81;4918322;29;20055;-81
2023/06/15 09:31:30;;;;;;;10.95;9.35;;;;;;;25.33;50.63;100987.09;4896272;29;20047;-82
2023/06/15 09:34:08;;;;;;;13.27;8.82;;;;;;;25.35;50.84;100984.16;4925225;29;20055;-83
2023/06/15 09:36:54;;;;;;;13.48;8.95;;;;;;;24.85;50.00;100891.84;4919068;28;20070;-83
2023/06/15 09:39:22;;;;;;;12.25;8.65;;;;;;;25.42;49.68;100984.09;4908302;28;20055;-83
2023/06/15 09:41:54;;;;;;;15.43;9.88;;;;;;;24.84;49.67;100866.59;4927480;28;20413;-83
2023/06/15 09:44:26;;;;;;;13.30;7.53;;;;;;;25.54;48.65;100960.56;4925006;29;20106;-84
2023/06/15 09:46:59;;;;;;;13.07;9.40;;;;;;;25.49;48.54;100952.25;4956196;28;20400;-82
2023/06/15 09:49:31;;;;;;;10.57;8.98;;;;;;;25.58;48.69;100943.56;5009742;28;20046;-83
2023/06/15 09:52:04;;;;;;;10.98;8.73;;;;;;;25.93;47.91;100977.47;4992773;28;20204;-84
2023/06/15 09:54:32;;;;;;;10.85;8.85;;;;;;;25.52;48.04;100902.88;4993226;28;20053;-83
2023/06/15 09:57:01;;;;;;;16.48;10.00;;;;;;;26.04;47.77;100963.06;5017103;28;20052;-82
2023/06/15 09:59:28;;;;;;;13.38;9.07;;;;;;;26.10;46.63;100945.84;5002571;28;20073;-84
2023/06/15 10:01:56;;;;;;;16.23;9.13;;;;;;;26.25;47.13;100969.09;5001585;28;20525;-84
2023/06/15 10:04:31;;;;;;;9.15;8.20;;;;;;;26.31;46.56;100951.81;5020971;28;20405;-83
2023/06/15 10:07:04;;;;;;;11.10;8.70;;;;;;;26.41;46.15;100960.25;5021142;28;20060;-82
2023/06/15 10:09:44;;;;;;;13.05;8.82;;;;;;;26.55;45.82;100959.00;4994293;28;20052;-84
2023/06/15 10:12:15;;;;;;;11.43;9.07;;;;;;;26.58;45.76;100944.94;5004424;28;20072;-83
2023/06/15 10:15:12;;;;;;;9.65;8.48;;;;;;;26.84;44.61;100956.44;4989703;28;20053;-82
2023/06/15 10:17:42;;;;;;;16.08;10.23;;;;;;;26.82;44.10;100934.06;4992167;28;20492;-81
2023/06/15 10:20:16;;;;;;;14.57;9.60;;;;;;;26.80;43.90;100917.16;4994898;28;20409;-82
2023/06/15 10:23:04;;;;;;;13.30;8.95;;;;;;;27.10;43.37;100924.34;5006677;28;20500;-83
2023/06/15 10:25:36;;;;;;;12.20;9.38;;;;;;;27.59;42.67;100972.06;4993503;28;20532;-82
2023/06/15 10:28:12;;;;;;;11.68;8.85;;;;;;;27.58;42.46;100945.03;4992790;28;20393;-82
2023/06/15 10:30:52;;;;;;;13.00;8.90;;;;;;;27.65;41.51;100932.09;4990568;28;20260;-82
2023/06/15 10:33:29;;;;;;;11.18;9.52;;;;;;;27.36;42.14;100860.34;4937897;28;20050;-83
2023/06/15 10:36:03;;;;;;;10.27;7.97;;;;;;;28.15;41.64;100941.53;4993427;28;20388;-82
2023/06/15 10:38:51;;;;;;;13.73;8.93;;;;;;;28.50;40.09;100933.19;4946249;28;20062;-76
2023/06/15 10:41:19;;;;;;;11.32;9.68;;;;;;;28.70;40.44;100949.06;4994830;28;20392;-87
2023/06/15 10:43:57;;;;;;;11.30;8.68;;;;;;;27.96;40.63;100829.84;5003739;28;20057;-80
2023/06/15 10:46:37;;;;;;;17.40;10.10;;;;;;;28.67;39.90;100955.84;4983854;28;20049;-80
2023/06/15 10:49:09;;;;;;;12.73;9.43;;;;;;;28.34;41.45;100902.03;4988852;28;20283;-81
2023/06/15 10:51:51;;;;;;;14.60;9.65;;;;;;;28.72;39.96;100947.75;5005714;28;20049;-79
2023/06/15 10:54:27;;;;;;;;;;;;;;;28.63;40.40;100954.69;4984429;28;20099;-81
2023/06/15 10:56:59;;;;;;;15.13;9.45;;;;;;;27.68;40.84;100833.44;4973986;28;19936;-80
2023/06/15 10:59:56;;;;;;;15.63;10.55;;;;;;;28.45;40.25;100930.31;4968631;28;20087;-81
2023/06/15 11:02:26;;;;;;;13.43;10.27;;;;;;;28.81;40.42;100956.31;5014677;28;20059;-80
2023/06/15 11:05:17;;;;;;;12.60;10.67;;;;;;;28.76;39.64;100893.41;4995812;28;20337;-83
2023/06/15 11:07:49;;;;;;;14.10;11.10;;;;;;;28.93;39.39;100909.78;4985177;28;20089;-84
2023/06/15 11:10:26;;;;;;;11.48;10.27;;;;;;;28.68;40.06;100891.94;4991157;28;20057;-83
2023/06/15 11:13:04;;;;;;;12.73;11.00;;;;;;;29.15;40.20;100951.69;4984886;28;20736;-83
2023/06/15 11:15:34;;;;;;;12.20;10.13;;;;;;;29.12;39.95;100930.31;5012560;28;20157;-82
2023/06/15 11:18:11;;;;;;;15.23;10.88;;;;;;;29.35;39.76;100942.94;4995114;28;20065;-81
2023/06/15 11:20:59;;;;;;;16.73;10.65;;;;;;;29.32;40.05;100921.59;4979982;28;20041;-84
2023/06/15 11:23:32;;;;;;;15.97;11.00;;;;;;;29.36;40.78;100941.03;5003639;28;20133;-82
2023/06/15 11:26:01;;;;;;;16.30;10.25;;;;;;;28.83;39.85;100876.84;4982650;28;20041;-83
2023/06/15 11:28:33;;;;;;;13.27;11.30;;;;;;;28.18;40.50;100807.28;4995398;28;20158;-82
2023/06/15 11:31:06;;;;;;;17.40;11.05;;;;;;;28.89;40.68;100935.97;5002741;28;20049;-83